Time;durP1;ratioP1;P1;durP2;ratioP2;P2;SDS_P1;SDS_P2;PMS_P1;PMS_P2;Temp;Humidity;BMP_temperature;BMP_pressure;BME280_temperature;BME280_humidity;BME280_pressure;Samples;Min_cycle;Max_cycle;Signal;HPM_P1;HPM_P2
2022/03/08 00:00:36;;;;;;;;;;;1.30;99.90;;;;;;5116599;28;20286;-66
2022/03/08 00:03:02;;;;;;;;;;;1.20;99.90;;;;;;5134607;28;20378;-67
2022/03/08 00:05:27;;;;;;;;;;;1.20;99.90;;;;;;5116432;28;20400;-67
2022/03/08 00:07:53;;;;;;;;;;;1.20;99.90;;;;;;5134382;28;20374;-68
2022/03/08 00:10:19;;;;;;;;;;;3.00;99.90;;;;;;5116148;28;19931;-67
2022/03/08 00:12:48;;;;;;;;;;;1.40;99.90;;;;;;5134281;28;19985;-67
2022/03/08 00:15:24;;;;;;;;;;;1.20;99.90;;;;;;5134777;28;19927;-67
2022/03/08 00:17:50;;;;;;;;;;;1.20;99.90;;;;;;5134368;28;20389;-67
2022/03/08 00:20:16;;;;;;;;;;;1.90;99.90;;;;;;5099115;28;19931;-67
2022/03/08 00:22:41;;;;;;;;;;;1.50;99.90;;;;;;5134487;28;19927;-67
2022/03/08 00:25:08;;;;;;;;;;;2.40;99.90;;;;;;5134339;28;19923;-69
2022/03/08 00:27:34;;;;;;;;;;;1.20;99.90;;;;;;5134312;28;19923;-67
2022/03/08 00:29:59;;;;;;;;;;;1.10;99.90;;;;;;5134443;28;19924;-67
2022/03/08 00:32:25;;;;;;;;;;;2.10;99.90;;;;;;5134403;28;20454;-67
2022/03/08 00:34:50;;;;;;;;;;;0.80;99.90;;;;;;5134202;28;19976;-67
2022/03/08 00:37:16;;;;;;;;;;;1.10;99.90;;;;;;5134322;28;19977;-66
2022/03/08 00:39:42;;;;;;;;;;;1.80;99.90;;;;;;5134303;28;19924;-66
2022/03/08 00:42:11;;;;;;;;;;;1.70;99.90;;;;;;5134219;28;20378;-67
2022/03/08 00:44:44;;;;;;;;;;;1.60;99.90;;;;;;5133983;28;19923;-70
2022/03/08 00:47:10;;;;;;;;;;;1.10;99.90;;;;;;5134344;28;20018;-69
2022/03/08 00:49:36;;;;;;;;;;;1.10;99.90;;;;;;5134142;27;19923;-67
2022/03/08 00:52:02;;;;;;;;;;;1.70;99.90;;;;;;5134108;28;20014;-68
2022/03/08 00:54:27;;;;;;;;;;;1.10;99.90;;;;;;5133953;28;20060;-68
2022/03/08 00:56:53;;;;;;;;;;;1.00;99.90;;;;;;5115506;28;19971;-67
2022/03/08 00:59:18;;;;;;;;;;;2.70;99.90;;;;;;5133864;28;19979;-67
2022/03/08 01:01:44;;;;;;;;;;;3.00;99.90;;;;;;5136472;27;19924;-67
2022/03/08 01:04:09;;;;;;;;;;;3.00;99.90;;;;;;5137906;27;19924;-69
2022/03/08 01:06:35;;;;;;;;;;;1.70;99.90;;;;;;5137803;27;20011;-67
2022/03/08 01:09:01;;;;;;;;;;;0.90;99.90;;;;;;5137503;27;19930;-70
2022/03/08 01:11:27;;;;;;;;;;;3.00;99.90;;;;;;5137633;27;19930;-69
2022/03/08 01:13:54;;;;;;;;;;;2.90;99.90;;;;;;5119319;27;19968;-69
2022/03/08 01:16:19;;;;;;;;;;;0.90;99.90;;;;;;5137563;27;19924;-69
2022/03/08 01:18:45;;;;;;;;;;;0.90;99.90;;;;;;5137727;27;19924;-67
2022/03/08 01:21:14;;;;;;;;;;;0.90;99.90;;;;;;5137365;27;19923;-68
2022/03/08 01:23:40;;;;;;;;;;;1.70;99.90;;;;;;5137467;27;19924;-70
2022/03/08 01:26:06;;;;;;;;;;;0.80;99.90;;;;;;5119201;27;20433;-67
2022/03/08 01:28:31;;;;;;;;;;;0.80;99.90;;;;;;5137123;27;19975;-67
2022/03/08 01:30:57;;;;;;;;;;;0.80;99.90;;;;;;5119313;27;19967;-67
2022/03/08 01:33:22;;;;;;;;;;;1.20;99.90;;;;;;5137241;27;20018;-67
2022/03/08 01:35:48;;;;;;;;;;;1.60;99.90;;;;;;5119248;27;19984;-71
2022/03/08 01:38:14;;;;;;;;;;;1.20;99.90;;;;;;5137145;27;20434;-67
2022/03/08 01:40:39;;;;;;;;;;;0.70;99.90;;;;;;5118601;27;19923;-69
2022/03/08 01:43:05;;;;;;;;;;;0.70;99.90;;;;;;5136860;27;19931;-67
2022/03/08 01:45:33;;;;;;;;;;;0.70;99.90;;;;;;5136877;27;20378;-71
2022/03/08 01:47:58;;;;;;;;;;;1.60;99.90;;;;;;5119017;27;20298;-67
2022/03/08 01:50:24;;;;;;;;;;;3.30;99.90;;;;;;5118518;27;19960;-69
2022/03/08 01:52:49;;;;;;;;;;;1.90;99.90;;;;;;5136903;27;19930;-66
2022/03/08 01:55:16;;;;;;;;;;;0.70;99.90;;;;;;5136747;27;20404;-67
2022/03/08 01:57:42;;;;;;;;;;;2.70;99.90;;;;;;5136661;27;19931;-67
2022/03/08 02:00:11;;;;;;;;;;;2.00;99.90;;;;;;5118423;27;19945;-68
2022/03/08 02:02:37;;;;;;;;;;;0.60;99.90;;;;;;5136753;27;19981;-69
2022/03/08 02:05:03;;;;;;;;;;;1.20;99.90;;;;;;5136682;27;19923;-67
2022/03/08 02:07:28;;;;;;;;;;;0.60;99.90;;;;;;5118495;27;19984;-67
2022/03/08 02:09:54;;;;;;;;;;;2.30;99.90;;;;;;5136474;27;19931;-68
2022/03/08 02:12:20;;;;;;;;;;;0.60;99.90;;;;;;5136132;27;20425;-68
2022/03/08 02:14:45;;;;;;;;;;;0.60;99.90;;;;;;5136157;27;19923;-67
2022/03/08 02:17:11;;;;;;;;;;;0.50;99.90;;;;;;5136571;27;19930;-67
2022/03/08 02:19:36;;;;;;;;;;;1.40;99.90;;;;;;5132709;27;20026;-68
2022/03/08 02:22:02;;;;;;;;;;;0.50;99.90;;;;;;5112985;27;20293;-67
2022/03/08 02:24:28;;;;;;;;;;;0.50;99.90;;;;;;5136258;27;19984;-69
2022/03/08 02:26:53;;;;;;;;;;;0.40;99.90;;;;;;5136100;27;19923;-67
2022/03/08 02:29:19;;;;;;;;;;;1.20;99.90;;;;;;5135943;27;19927;-67
2022/03/08 02:31:47;;;;;;;;;;;1.60;99.90;;;;;;5117799;27;19924;-67
2022/03/08 02:34:14;;;;;;;;;;;0.90;99.90;;;;;;5136111;27;20026;-68
2022/03/08 02:36:41;;;;;;;;;;;1.00;99.90;;;;;;5117660;27;20315;-70
2022/03/08 02:39:07;;;;;;;;;;;0.60;99.90;;;;;;5135953;27;19924;-66
2022/03/08 02:41:32;;;;;;;;;;;0.40;99.90;;;;;;5135745;27;19933;-67
2022/03/08 02:43:58;;;;;;;;;;;0.40;99.90;;;;;;5135669;27;19927;-70
2022/03/08 02:46:24;;;;;;;;;;;0.40;99.90;;;;;;5135696;27;19973;-66
2022/03/08 02:48:49;;;;;;;;;;;0.50;99.90;;;;;;5135880;27;19923;-67
2022/03/08 02:51:17;;;;;;;;;;;1.20;99.90;;;;;;5135537;27;19927;-69
2022/03/08 02:53:43;;;;;;;;;;;0.70;99.90;;;;;;5135654;27;19924;-69
2022/03/08 02:56:09;;;;;;;;;;;0.40;99.90;;;;;;5117288;27;20041;-67
2022/03/08 02:58:34;;;;;;;;;;;1.80;99.90;;;;;;5116909;27;20378;-70
2022/03/08 03:01:00;;;;;;;;;;;0.40;99.90;;;;;;5117144;27;19930;-66
2022/03/08 03:03:25;;;;;;;;;;;0.30;99.90;;;;;;5135606;27;19923;-70
2022/03/08 03:05:51;;;;;;;;;;;1.80;99.90;;;;;;5117453;27;19923;-70
2022/03/08 03:08:17;;;;;;;;;;;1.00;99.90;;;;;;5135432;27;19937;-67
2022/03/08 03:10:42;;;;;;;;;;;0.30;99.90;;;;;;5117146;27;19975;-67
2022/03/08 03:13:08;;;;;;;;;;;0.30;99.90;;;;;;5135322;27;20007;-67
2022/03/08 03:15:33;;;;;;;;;;;0.30;99.90;;;;;;5117070;27;19924;-67
2022/03/08 03:18:00;;;;;;;;;;;1.80;99.90;;;;;;5135124;27;19927;-68
2022/03/08 03:20:26;;;;;;;;;;;-1.00;99.90;;;;;;5135097;27;19982;-67
2022/03/08 03:22:52;;;;;;;;;;;0.30;99.90;;;;;;5135056;27;19967;-67
2022/03/08 03:25:18;;;;;;;;;;;0.30;99.90;;;;;;5116747;28;20369;-67
2022/03/08 03:27:44;;;;;;;;;;;0.30;99.90;;;;;;5135114;27;19932;-67
2022/03/08 03:30:11;;;;;;;;;;;0.20;99.90;;;;;;5116325;27;19928;-67
2022/03/08 03:32:36;;;;;;;;;;;-0.80;99.90;;;;;;5116505;27;19924;-67
2022/03/08 03:35:03;;;;;;;;;;;0.90;99.90;;;;;;5135114;27;19984;-69
2022/03/08 03:37:29;;;;;;;;;;;0.60;99.90;;;;;;5134803;27;20458;-66
2022/03/08 03:39:55;;;;;;;;;;;0.20;99.90;;;;;;5134983;27;19927;-69
2022/03/08 03:42:20;;;;;;;;;;;0.20;99.90;;;;;;5116425;27;19923;-67
2022/03/08 03:44:46;;;;;;;;;;;1.70;99.90;;;;;;5134729;27;20026;-70
2022/03/08 03:47:11;;;;;;;;;;;0.20;99.90;;;;;;5116365;27;19924;-67
2022/03/08 03:49:37;;;;;;;;;;;1.50;99.90;;;;;;5134807;27;20333;-67
2022/03/08 03:52:04;;;;;;;;;;;0.20;99.90;;;;;;5134774;27;19924;-67
2022/03/08 03:54:29;;;;;;;;;;;0.10;99.90;;;;;;5134663;27;19928;-68
2022/03/08 03:56:55;;;;;;;;;;;0.10;99.90;;;;;;5116392;28;19923;-68
2022/03/08 03:59:20;;;;;;;;;;;0.10;99.90;;;;;;5134584;28;20293;-69
2022/03/08 04:01:46;;;;;;;;;;;1.10;99.90;;;;;;5134481;28;20450;-68
2022/03/08 04:04:11;;;;;;;;;;;-0.20;99.90;;;;;;5116692;28;19927;-68
2022/03/08 04:06:37;;;;;;;;;;;0.10;99.90;;;;;;5116615;28;19981;-67
2022/03/08 04:09:03;;;;;;;;;;;2.00;99.90;;;;;;5134678;28;20131;-68
2022/03/08 04:11:29;;;;;;;;;;;1.50;99.90;;;;;;5134631;28;19927;-67
2022/03/08 04:13:55;;;;;;;;;;;1.50;99.90;;;;;;5099093;28;20025;-67
2022/03/08 04:16:20;;;;;;;;;;;2.40;99.90;;;;;;5116373;28;19923;-67
2022/03/08 04:18:46;;;;;;;;;;;0.10;99.90;;;;;;5116292;28;19931;-67
2022/03/08 04:21:12;;;;;;;;;;;-0.30;99.90;;;;;;5116254;28;19924;-70
2022/03/08 04:23:37;;;;;;;;;;;0.00;99.90;;;;;;5134525;28;20279;-69
2022/03/08 04:26:03;;;;;;;;;;;1.20;99.90;;;;;;5116373;28;19931;-69
2022/03/08 04:28:28;;;;;;;;;;;1.20;99.90;;;;;;5134326;28;20013;-66
2022/03/08 04:30:54;;;;;;;;;;;0.00;99.90;;;;;;5116048;28;20013;-67
2022/03/08 04:33:19;;;;;;;;;;;-0.10;99.90;;;;;;5134157;28;19924;-69
2022/03/08 04:35:45;;;;;;;;;;;-0.10;99.90;;;;;;5135342;27;19923;-67
2022/03/08 04:38:11;;;;;;;;;;;1.60;99.90;;;;;;5120438;27;19923;-66
2022/03/08 04:40:37;;;;;;;;;;;-0.10;99.90;;;;;;5119984;27;19927;-67
2022/03/08 04:43:03;;;;;;;;;;;-0.20;99.90;;;;;;5103121;27;19972;-70
2022/03/08 04:45:28;;;;;;;;;;;0.70;99.90;;;;;;5138073;27;19930;-69
2022/03/08 04:47:54;;;;;;;;;;;-0.10;99.90;;;;;;5119636;27;19924;-67
2022/03/08 04:50:19;;;;;;;;;;;-0.30;99.90;;;;;;5138060;27;19923;-68
2022/03/08 04:52:47;;;;;;;;;;;1.80;99.90;;;;;;5138187;27;20285;-67
2022/03/08 04:55:13;;;;;;;;;;;0.60;99.90;;;;;;5138119;27;19923;-67
2022/03/08 04:57:39;;;;;;;;;;;2.40;99.90;;;;;;5102904;27;19929;-66
2022/03/08 05:00:05;;;;;;;;;;;1.00;99.90;;;;;;5102623;27;19971;-66
2022/03/08 05:02:31;;;;;;;;;;;-0.10;99.90;;;;;;5137739;27;20289;-69
2022/03/08 05:04:57;;;;;;;;;;;0.60;99.90;;;;;;5119354;27;19924;-67
2022/03/08 05:07:23;;;;;;;;;;;0.20;99.90;;;;;;5119797;27;20005;-66
2022/03/08 05:09:48;;;;;;;;;;;-0.20;99.90;;;;;;5102646;27;19924;-67
2022/03/08 05:12:14;;;;;;;;;;;1.50;99.90;;;;;;5137409;27;19923;-67
2022/03/08 05:14:40;;;;;;;;;;;0.40;99.90;;;;;;5137569;27;19931;-70
2022/03/08 05:17:05;;;;;;;;;;;-0.30;99.90;;;;;;5137471;27;19930;-67
2022/03/08 05:19:31;;;;;;;;;;;-0.20;99.90;;;;;;5119032;27;20453;-67
2022/03/08 05:21:56;;;;;;;;;;;-0.30;99.90;;;;;;5137581;27;19978;-67
2022/03/08 05:24:22;;;;;;;;;;;-0.40;99.90;;;;;;5137548;27;19930;-67
2022/03/08 05:26:47;;;;;;;;;;;0.70;99.90;;;;;;5119330;27;19923;-67
2022/03/08 05:29:13;;;;;;;;;;;-0.30;99.90;;;;;;5137208;27;19930;-69
2022/03/08 05:31:39;;;;;;;;;;;-0.30;99.90;;;;;;5137149;27;19935;-69
2022/03/08 05:34:04;;;;;;;;;;;0.90;99.90;;;;;;5137201;27;19974;-67
2022/03/08 05:36:30;;;;;;;;;;;-0.30;99.90;;;;;;5137024;27;19928;-69
2022/03/08 05:38:56;;;;;;;;;;;1.30;99.90;;;;;;5137210;27;19923;-67
2022/03/08 05:41:21;;;;;;;;;;;-0.50;99.90;;;;;;5137166;27;19978;-66
2022/03/08 05:43:47;;;;;;;;;;;-1.20;99.90;;;;;;5136819;27;20388;-67
2022/03/08 05:46:12;;;;;;;;;;;-0.30;99.90;;;;;;5101545;27;19923;-67
2022/03/08 05:48:38;;;;;;;;;;;-0.30;99.90;;;;;;5118940;27;19923;-70
2022/03/08 05:51:03;;;;;;;;;;;-0.40;99.90;;;;;;5137080;27;19946;-68
2022/03/08 05:53:29;;;;;;;;;;;1.00;99.90;;;;;;5136708;27;19924;-67
2022/03/08 05:55:55;;;;;;;;;;;-0.30;99.90;;;;;;5136797;27;19924;-67
2022/03/08 05:58:20;;;;;;;;;;;1.60;99.90;;;;;;5118564;27;19923;-69
2022/03/08 06:00:46;;;;;;;;;;;0.90;99.90;;;;;;5136620;27;19927;-70
2022/03/08 06:03:11;;;;;;;;;;;-0.30;99.90;;;;;;5136756;27;20401;-69
2022/03/08 06:05:37;;;;;;;;;;;-0.30;99.90;;;;;;5136539;27;20294;-67
2022/03/08 06:08:04;;;;;;;;;;;1.00;99.90;;;;;;5136686;27;19924;-69
2022/03/08 06:10:29;;;;;;;;;;;-0.20;99.90;;;;;;5136468;27;19928;-70
2022/03/08 06:12:55;;;;;;;;;;;-0.20;99.90;;;;;;5136586;27;20309;-67
2022/03/08 06:15:21;;;;;;;;;;;-0.20;99.90;;;;;;5118073;27;20289;-66
2022/03/08 06:17:46;;;;;;;;;;;1.50;99.90;;;;;;5136342;27;19969;-70
2022/03/08 06:20:12;;;;;;;;;;;0.30;99.90;;;;;;5117895;27;19923;-67
2022/03/08 06:22:38;;;;;;;;;;;-0.20;99.90;;;;;;5117775;27;19930;-67
2022/03/08 06:25:04;;;;;;;;;;;-0.20;99.90;;;;;;5118041;27;20378;-70
2022/03/08 06:27:29;;;;;;;;;;;0.30;99.90;;;;;;5136141;27;19928;-70
2022/03/08 06:29:55;;;;;;;;;;;0.30;99.90;;;;;;5118057;27;19924;-69
2022/03/08 06:32:20;;;;;;;;;;;-0.20;99.90;;;;;;5136057;27;19923;-67
2022/03/08 06:34:46;;;;;;;;;;;-0.20;99.90;;;;;;5117963;27;19924;-67
2022/03/08 06:37:12;;;;;;;;;;;0.40;99.90;;;;;;5117874;27;19927;-67
2022/03/08 06:39:38;;;;;;;;;;;-0.10;99.90;;;;;;5117988;27;20018;-67
2022/03/08 06:42:04;;;;;;;;;;;-0.10;99.90;;;;;;5135917;27;20022;-70
2022/03/08 06:44:31;;;;;;;;;;;0.40;99.90;;;;;;5136042;27;20370;-67
2022/03/08 06:46:57;;;;;;;;;;;1.80;99.90;;;;;;5117265;27;19927;-69
2022/03/08 06:49:23;;;;;;;;;;;0.00;99.90;;;;;;5135625;27;20447;-67
2022/03/08 06:51:48;;;;;;;;;;;1.50;99.90;;;;;;5117572;27;20027;-68
2022/03/08 06:54:14;;;;;;;;;;;0.00;99.90;;;;;;5135889;27;19968;-69
2022/03/08 06:56:40;;;;;;;;;;;1.20;99.90;;;;;;5135719;27;19924;-67
2022/03/08 06:59:05;;;;;;;;;;;0.90;99.90;;;;;;5134799;27;19924;-66
2022/03/08 07:01:31;;;;;;;;;;;0.20;99.90;;;;;;5117231;27;19928;-67
2022/03/08 07:03:57;;;;;;;;;;;0.70;99.90;;;;;;5117205;27;20420;-67
2022/03/08 07:06:22;;;;;;;;;;;0.20;99.90;;;;;;5135427;27;19924;-67
2022/03/08 07:08:48;;;;;;;;;;;0.20;99.90;;;;;;5135268;27;19923;-67
2022/03/08 07:11:14;;;;;;;;;;;0.30;99.90;;;;;;5117063;27;19924;-68
2022/03/08 07:13:39;;;;;;;;;;;0.30;99.90;;;;;;5135342;27;20018;-66
2022/03/08 07:16:05;;;;;;;;;;;0.80;99.90;;;;;;5135231;27;20021;-69
2022/03/08 07:18:31;;;;;;;;;;;0.40;99.90;;;;;;5117198;27;19931;-69
2022/03/08 07:20:56;;;;;;;;;;;2.70;99.90;;;;;;5116765;27;19923;-69
2022/03/08 07:23:22;;;;;;;;;;;0.50;99.90;;;;;;5134957;27;20374;-67
2022/03/08 07:25:48;;;;;;;;;;;1.90;99.90;;;;;;5135177;27;19923;-67
2022/03/08 07:28:14;;;;;;;;;;;1.80;99.90;;;;;;5133987;27;20271;-67
2022/03/08 07:30:39;;;;;;;;;;;0.70;99.90;;;;;;5134753;27;19923;-66
2022/03/08 07:33:05;;;;;;;;;;;1.20;99.90;;;;;;5134598;27;19982;-67
2022/03/08 07:35:30;;;;;;;;;;;2.20;99.90;;;;;;5134885;27;19976;-66
2022/03/08 07:37:56;;;;;;;;;;;0.80;99.90;;;;;;5134707;27;19930;-67
2022/03/08 07:40:22;;;;;;;;;;;2.50;99.90;;;;;;5134657;27;19923;-67
2022/03/08 07:42:47;;;;;;;;;;;1.00;99.90;;;;;;5134850;27;19924;-68
2022/03/08 07:45:13;;;;;;;;;;;1.30;99.90;;;;;;5134723;27;19923;-67
2022/03/08 07:47:38;;;;;;;;;;;1.20;99.90;;;;;;5134794;27;19934;-67
2022/03/08 07:50:05;;;;;;;;;;;1.10;99.90;;;;;;5116647;27;19924;-68
2022/03/08 07:52:31;;;;;;;;;;;1.20;99.90;;;;;;5134593;27;19923;-67
2022/03/08 07:54:57;;;;;;;;;;;1.30;99.90;;;;;;5116474;28;19931;-68
2022/03/08 07:57:22;;;;;;;;;;;3.00;99.90;;;;;;5134675;27;19984;-67
2022/03/08 07:59:48;;;;;;;;;;;1.40;99.90;;;;;;5134888;28;19923;-67
2022/03/08 08:02:13;;;;;;;;;;;2.40;99.90;;;;;;5116335;28;19930;-70
2022/03/08 08:04:39;;;;;;;;;;;2.30;99.90;;;;;;5115917;28;20022;-66
2022/03/08 08:07:05;;;;;;;;;;;2.80;99.90;;;;;;5116432;28;20398;-66
2022/03/08 08:09:30;;;;;;;;;;;2.20;99.90;;;;;;5134876;27;20366;-69
2022/03/08 08:11:56;;;;;;;;;;;1.80;99.90;;;;;;5120171;27;19931;-67
2022/03/08 08:14:22;;;;;;;;;;;1.80;99.90;;;;;;5120343;27;19930;-70
2022/03/08 08:16:47;;;;;;;;;;;1.90;99.90;;;;;;5120533;27;19930;-67
2022/03/08 08:19:13;;;;;;;;;;;3.30;99.90;;;;;;5138526;27;19924;-67
2022/03/08 08:21:39;;;;;;;;;;;2.10;99.90;;;;;;5138590;27;19985;-69
2022/03/08 08:24:04;;;;;;;;;;;3.40;99.90;;;;;;5138553;27;20289;-66
2022/03/08 08:26:30;;;;;;;;;;;1.20;99.90;;;;;;5138293;27;20441;-70
2022/03/08 08:29:10;;;;;;;;;;;3.30;99.90;;;;;;5138519;27;20293;-67
2022/03/08 08:31:36;;;;;;;;;;;2.40;99.90;;;;;;5138443;27;19924;-66
2022/03/08 08:34:02;;;;;;;;;;;3.80;99.90;;;;;;5120049;27;19931;-67
2022/03/08 08:36:28;;;;;;;;;;;3.30;99.90;;;;;;5138312;27;20006;-67
2022/03/08 08:38:53;;;;;;;;;;;2.70;99.90;;;;;;5103138;27;19924;-70
2022/03/08 08:41:19;;;;;;;;;;;2.70;99.90;;;;;;5138056;27;19934;-69
2022/03/08 08:43:44;;;;;;;;;;;3.20;99.90;;;;;;5120295;27;19923;-67
2022/03/08 08:46:10;;;;;;;;;;;2.60;99.90;;;;;;5120077;27;19928;-68
2022/03/08 08:48:36;;;;;;;;;;;3.00;99.90;;;;;;5138200;27;19980;-68
2022/03/08 08:51:01;;;;;;;;;;;4.50;99.90;;;;;;5119387;27;20027;-69
2022/03/08 08:53:27;;;;;;;;;;;4.00;99.90;;;;;;5138011;27;19977;-68
2022/03/08 08:55:53;;;;;;;;;;;4.20;99.90;;;;;;5119768;27;19923;-67
2022/03/08 08:58:18;;;;;;;;;;;4.20;99.90;;;;;;5102837;27;19930;-66
2022/03/08 09:00:44;;;;;;;;;;;3.40;99.90;;;;;;5119696;27;19923;-67
2022/03/08 09:03:14;;;;;;;;;;;3.50;99.90;;;;;;5119830;27;19924;-67
2022/03/08 09:05:44;;;;;;;;;;;5.30;99.90;;;;;;5119775;27;19924;-67
2022/03/08 09:08:10;;;;;;;;;;;3.70;99.90;;;;;;5137603;27;19974;-68
2022/03/08 09:10:35;;;;;;;;;;;4.80;99.90;;;;;;5137368;27;19976;-68
2022/03/08 09:13:01;;;;;;;;;;;4.40;99.90;;;;;;5137792;27;19924;-67
2022/03/08 09:15:27;;;;;;;;;;;4.40;99.90;;;;;;5137589;27;20286;-67
2022/03/08 09:17:53;;;;;;;;;;;4.10;99.90;;;;;;5119568;27;19953;-67
2022/03/08 09:20:18;;;;;;;;;;;4.60;99.90;;;;;;5102585;27;19931;-67
2022/03/08 09:22:44;;;;;;;;;;;4.30;99.90;;;;;;5136530;27;19924;-67
2022/03/08 09:25:09;;;;;;;;;;;4.80;99.90;;;;;;5118886;27;20026;-69
2022/03/08 09:27:35;;;;;;;;;;;3.30;99.90;;;;;;5137505;27;19923;-67
2022/03/08 09:30:02;;;;;;;;;;;4.50;99.90;;;;;;5118309;27;19931;-68
2022/03/08 09:32:27;;;;;;;;;;;5.60;99.90;;;;;;5137301;27;20298;-67
2022/03/08 09:34:53;;;;;;;;;;;4.70;99.90;;;;;;5137206;27;19924;-67
2022/03/08 09:37:19;;;;;;;;;;;4.80;99.90;;;;;;5102049;27;19934;-67
2022/03/08 09:39:44;;;;;;;;;;;5.20;99.90;;;;;;5118950;27;20441;-68
2022/03/08 09:42:10;;;;;;;;;;;5.20;99.90;;;;;;5136870;27;19923;-72
2022/03/08 09:44:36;;;;;;;;;;;5.20;99.90;;;;;;5136691;27;19923;-70
2022/03/08 09:47:02;;;;;;;;;;;5.30;99.90;;;;;;5135727;27;20012;-67
2022/03/08 09:49:28;;;;;;;;;;;5.20;99.90;;;;;;5135834;27;19924;-68
2022/03/08 09:51:53;;;;;;;;;;;5.30;99.90;;;;;;5118336;27;19924;-71
2022/03/08 09:54:19;;;;;;;;;;;6.70;99.90;;;;;;5118528;27;19927;-70
2022/03/08 09:56:45;;;;;;;;;;;5.50;99.90;;;;;;5117960;27;19938;-69
2022/03/08 09:59:13;;;;;;;;;;;6.00;99.90;;;;;;5136716;27;19923;-69
2022/03/08 10:01:39;;;;;;;;;;;5.70;99.90;;;;;;5118141;27;19970;-69
2022/03/08 10:04:06;;;;;;;;;;;5.80;99.90;;;;;;5136432;27;20310;-69
2022/03/08 10:06:40;;;;;;;;;;;5.90;99.90;;;;;;5136414;27;20303;-71
2022/03/08 10:09:09;;;;;;;;;;;6.00;99.90;;;;;;5136334;27;19923;-70
2022/03/08 10:11:37;;;;;;;;;;;6.10;99.90;;;;;;5136220;27;19976;-71
2022/03/08 10:14:02;;;;;;;;;;;6.20;99.90;;;;;;5135895;27;20017;-70
2022/03/08 10:16:41;;;;;;;;;;;6.20;99.90;;;;;;5135887;27;20027;-69
2022/03/08 10:19:09;;;;;;;;;;;6.40;99.90;;;;;;5136178;27;19923;-70
2022/03/08 10:21:35;;;;;;;;;;;7.30;99.90;;;;;;5135686;27;20018;-69
2022/03/08 10:24:03;;;;;;;;;;;6.60;99.90;;;;;;5117863;27;19924;-69
2022/03/08 10:26:29;;;;;;;;;;;6.70;99.90;;;;;;5100726;27;20018;-69
2022/03/08 10:28:56;;;;;;;;;;;6.80;99.90;;;;;;5136052;27;19989;-70
2022/03/08 10:31:21;;;;;;;;;;;6.90;99.90;;;;;;5135966;27;19923;-69
2022/03/08 10:33:48;;;;;;;;;;;7.00;99.90;;;;;;5134711;27;19923;-70
2022/03/08 10:36:23;;;;;;;;;;;7.00;99.90;;;;;;5117517;27;19923;-69
2022/03/08 10:39:12;;;;;;;;;;;7.10;99.90;;;;;;5117537;27;19923;-69
2022/03/08 10:41:39;;;;;;;;;;;7.50;95.40;;;;;;5135362;27;20369;-69
2022/03/08 10:44:05;;;;;;;;;;;8.20;99.90;;;;;;5117592;27;19977;-69
2022/03/08 10:46:32;;;;;;;;;;;7.50;99.90;;;;;;5117425;27;19923;-69
2022/03/08 10:48:58;;;;;;;;;;;7.60;99.90;;;;;;5135564;27;19928;-69
2022/03/08 10:51:23;;;;;;;;;;;7.70;99.90;;;;;;5117475;27;19992;-69
2022/03/08 10:53:49;;;;;;;;;;;7.80;99.90;;;;;;5135602;27;19927;-69
2022/03/08 10:56:25;;;;;;;;;;;7.90;98.40;;;;;;5117151;27;19924;-69
2022/03/08 10:58:52;;;;;;;;;;;8.00;98.20;;;;;;5135288;27;19963;-70
2022/03/08 11:01:19;;;;;;;;;;;8.10;93.00;;;;;;5135051;27;19930;-70
2022/03/08 11:04:04;;;;;;;;;;;8.20;99.90;;;;;;5116926;27;19923;-69
2022/03/08 11:06:31;;;;;;;;;;;8.30;85.40;;;;;;5135201;27;20368;-69
2022/03/08 11:08:57;;;;;;;;;;;8.40;99.90;;;;;;5135050;27;19927;-70
2022/03/08 11:11:24;;;;;;;;;;;8.50;94.10;;;;;;5134935;27;19930;-70
2022/03/08 11:13:54;;;;;;;;;;;8.50;87.80;;;;;;5134975;27;19927;-70
2022/03/08 11:16:20;;;;;;;;;;;8.70;79.90;;;;;;5134603;27;19928;-69
2022/03/08 11:18:48;;;;;;;;;;;8.70;76.20;;;;;;5116675;27;19923;-69
2022/03/08 11:21:15;;;;;;;;;;;8.80;77.90;;;;;;5122310;27;19924;-69
2022/03/08 11:23:43;;;;;;;;;;;8.80;76.00;;;;;;5106194;28;19923;-69
2022/03/08 11:26:11;;;;;;;;;;;8.90;76.30;;;;;;5130975;27;19923;-68
2022/03/08 11:28:38;;;;;;;;;;;9.00;80.80;;;;;;5126068;27;19924;-69
2022/03/08 11:31:04;;;;;;;;;;;9.00;78.50;;;;;;5134667;27;20410;-71
2022/03/08 11:33:49;;;;;;;;;;;9.10;70.10;;;;;;5134601;27;19930;-69
2022/03/08 11:36:18;;;;;;;;;;;9.10;78.00;;;;;;5134789;27;19963;-70
2022/03/08 11:39:04;;;;;;;;;;;9.20;77.20;;;;;;5134787;27;19923;-70
2022/03/08 11:41:30;;;;;;;;;;;9.30;70.60;;;;;;5134361;27;19927;-67
2022/03/08 11:43:55;;;;;;;;;;;9.40;68.50;;;;;;5134379;27;19931;-69
2022/03/08 11:46:21;;;;;;;;;;;9.50;64.60;;;;;;5134334;27;20011;-69
2022/03/08 11:48:52;;;;;;;;;;;9.40;64.90;;;;;;5134656;27;20006;-72
2022/03/08 11:51:18;;;;;;;;;;;9.50;66.70;;;;;;5116264;28;20366;-70
2022/03/08 11:53:47;;;;;;;;;;;9.50;66.70;;;;;;5134429;27;19930;-69
2022/03/08 11:56:17;;;;;;;;;;;9.60;68.60;;;;;;5134056;27;19923;-69
2022/03/08 11:58:44;;;;;;;;;;;9.60;63.60;;;;;;5134416;27;19923;-69
2022/03/08 12:01:21;;;;;;;;;;;9.60;66.60;;;;;;5134324;28;19924;-69
2022/03/08 12:03:52;;;;;;;;;;;9.70;75.50;;;;;;5134505;28;19924;-70
2022/03/08 12:06:28;;;;;;;;;;;9.60;71.50;;;;;;5116346;28;19930;-69
2022/03/08 12:08:59;;;;;;;;;;;9.70;65.50;;;;;;5134178;28;20283;-70
2022/03/08 12:11:27;;;;;;;;;;;9.70;68.90;;;;;;5115912;28;19975;-69
2022/03/08 12:14:04;;;;;;;;;;;9.80;63.70;;;;;;5134303;28;19924;-74
2022/03/08 12:16:30;;;;;;;;;;;9.80;70.00;;;;;;5115953;28;19927;-69
2022/03/08 12:18:56;;;;;;;;;;;9.80;63.30;;;;;;5099350;28;19930;-70
2022/03/08 12:21:23;;;;;;;;;;;9.90;64.60;;;;;;5133957;28;19923;-71
2022/03/08 12:24:04;;;;;;;;;;;9.80;64.80;;;;;;5134189;28;20026;-71
2022/03/08 12:26:36;;;;;;;;;;;10.60;62.00;;;;;;5133994;28;20018;-70
2022/03/08 12:29:08;;;;;;;;;;;9.90;63.10;;;;;;5091290;28;19931;-71
2022/03/08 12:31:54;;;;;;;;;;;9.90;60.70;;;;;;5109167;28;19924;-70
2022/03/08 12:34:39;;;;;;;;;;;10.00;61.70;;;;;;5093136;28;19951;-70
2022/03/08 12:37:12;;;;;;;;;;;10.10;60.70;;;;;;5093338;28;20409;-70
2022/03/08 12:39:53;;;;;;;;;;;9.90;61.00;;;;;;5109259;28;19931;-70
2022/03/08 12:42:24;;;;;;;;;;;10.00;59.60;;;;;;5108993;28;20136;-70
2022/03/08 12:44:51;;;;;;;;;;;10.00;61.50;;;;;;5093009;28;19967;-69
2022/03/08 12:47:17;;;;;;;;;;;10.00;60.70;;;;;;5093182;28;19969;-68
2022/03/08 12:49:43;;;;;;;;;;;10.00;63.30;;;;;;5093000;28;20014;-70
2022/03/08 12:52:09;;;;;;;;;;;10.00;60.80;;;;;;5109300;28;20354;-70
2022/03/08 12:54:36;;;;;;;;;;;10.00;62.40;;;;;;5092994;28;19924;-69
2022/03/08 12:57:02;;;;;;;;;;;10.00;63.10;;;;;;5076519;28;19924;-70
2022/03/08 12:59:28;;;;;;;;;;;10.00;61.70;;;;;;5096685;28;20303;-72
2022/03/08 13:02:06;;;;;;;;;;;10.00;63.50;;;;;;5096689;28;19924;-73
2022/03/08 13:04:31;;;;;;;;;;;10.00;61.90;;;;;;5078931;28;19972;-71
2022/03/08 13:07:11;;;;;;;;;;;10.00;63.60;;;;;;5078803;28;20015;-70
2022/03/08 13:09:53;;;;;;;;;;;10.00;62.30;;;;;;5096624;28;19932;-78
2022/03/08 13:12:23;;;;;;;;;;;10.00;64.80;;;;;;5096571;28;19924;-75
2022/03/08 13:15:08;;;;;;;;;;;10.00;64.80;;;;;;5096446;28;19935;-71
2022/03/08 13:17:35;;;;;;;;;;;10.00;62.30;;;;;;5096356;28;20311;-75
2022/03/08 13:20:01;;;;;;;;;;;10.00;60.10;;;;;;5078183;28;20019;-73
2022/03/08 13:22:27;;;;;;;;;;;10.00;59.90;;;;;;5096172;28;19924;-72
2022/03/08 13:25:10;;;;;;;;;;;10.00;61.50;;;;;;5096382;28;20077;-71
2022/03/08 13:27:48;;;;;;;;;;;9.90;59.60;;;;;;5096205;28;19928;-70
2022/03/08 13:30:37;;;;;;;;;;;10.00;60.20;;;;;;5096305;28;19932;-73
2022/03/08 13:33:09;;;;;;;;;;;10.00;60.40;;;;;;5077966;28;19928;-73
2022/03/08 13:35:36;;;;;;;;;;;10.10;59.20;;;;;;5096273;28;20129;-71
2022/03/08 13:38:01;;;;;;;;;;;10.10;60.70;;;;;;5078346;28;19977;-71
2022/03/08 13:40:29;;;;;;;;;;;10.10;58.60;;;;;;5095870;28;19924;-72
2022/03/08 13:42:59;;;;;;;;;;;10.20;62.50;;;;;;5096062;28;19931;-72
2022/03/08 13:45:38;;;;;;;;;;;10.10;61.20;;;;;;5078141;28;20383;-73
2022/03/08 13:48:05;;;;;;;;;;;10.20;59.50;;;;;;5078445;28;20018;-71
2022/03/08 13:50:31;;;;;;;;;;;10.20;60.00;;;;;;5095799;28;19924;-72
2022/03/08 13:53:13;;;;;;;;;;;10.10;57.60;;;;;;5096010;28;19976;-72
2022/03/08 13:55:41;;;;;;;;;;;10.10;59.10;;;;;;5095673;28;19924;-73
2022/03/08 13:58:12;;;;;;;;;;;10.10;58.80;;;;;;5095576;28;20117;-73
2022/03/08 14:00:40;;;;;;;;;;;10.10;58.10;;;;;;5111904;28;19973;-71
2022/03/08 14:03:07;;;;;;;;;;;10.20;62.00;;;;;;5095689;28;19924;-71
2022/03/08 14:05:53;;;;;;;;;;;10.20;58.80;;;;;;5111412;28;20417;-70
2022/03/08 14:08:31;;;;;;;;;;;10.20;60.00;;;;;;5095014;28;20349;-70
2022/03/08 14:10:59;;;;;;;;;;;10.20;58.40;;;;;;5111444;28;19975;-73
2022/03/08 14:13:26;;;;;;;;;;;10.20;59.20;;;;;;5095185;28;20007;-73
2022/03/08 14:15:54;;;;;;;;;;;10.20;60.90;;;;;;5095350;28;20310;-70
2022/03/08 14:18:20;;;;;;;;;;;10.20;57.80;;;;;;5095383;28;19935;-72
2022/03/08 14:20:46;;;;;;;;;;;10.20;57.10;;;;;;5095476;28;20367;-70
2022/03/08 14:23:13;;;;;;;;;;;10.20;55.90;;;;;;5095291;28;19931;-70
2022/03/08 14:26:00;;;;;;;;;;;10.20;56.70;;;;;;5095099;28;19924;-69